^^
Station Historical Data
Daily Summary for Nil La, TWC- Units:  Both    English   Metric
« Previous Day
Next Day »
Daily Weekly Monthly Yearly Custom
  High: Low: Average:
Temperature: TemperatureF °F /  -17.8 °C 67.5 °F /  19.7 °C 76.6 °F /  24.8 °C
Dew Point: DewpointF °F /  -17.8 °C 23.7 °F /  -4.6 °C 30.1 °F /  -1.1 °C
Humidity: Humidity% 15% 18%
Wind Speed: WindSpeedMPHmph /  0km/h - 5.1mph /  8.2km/h
Wind Gust: WindSpeedGustMPHmph /  0km/h - -
Wind- - East
Pressure: PressureIn in /  0 hPa 29.70 in /  1005.6 hPa -
Precipitation: 0.00 in /  0 mm    
Historical Graphs
 
 
Tabular Data for Nil La, TWC-
Time Temperature Dew Point Pressure Wind Wind Speed Wind Gust Humidity Rainfall Rate (Hourly) solar Conditions
TemperatureF °F /  -17.8 °C DewpointF °F /  -17.8 °C PressureInin /  0hPa Calm     Humidity% HourlyPrecipInin /  0mm SolarRadiationWatts/m^2 W/m2 Conditions
00:03 72.0 °F /  22.2 °C 27.5 °F /  -2.5 °C 29.80in /  1009hPa SSE 4.0mph /  6.4km/h 13.0mph /  20.9km/h 19% 0.00in /  0mm 5.00 W/m2
00:08 72.0 °F /  22.2 °C 27.5 °F /  -2.5 °C 29.81in /  1009.4hPa ESE 6.0mph /  9.7km/h 7.0mph /  11.3km/h 19% 0.00in /  0mm 5.00 W/m2
00:14 71.6 °F /  22 °C 27.1 °F /  -2.7 °C 29.80in /  1009hPa SSE 2.0mph /  3.2km/h 3.0mph /  4.8km/h 19% 0.00in /  0mm 5.00 W/m2
00:18 71.4 °F /  21.9 °C 27.0 °F /  -2.8 °C 29.80in /  1009hPa SSE 2.0mph /  3.2km/h 5.0mph /  8km/h 19% 0.00in /  0mm 0.00 W/m2
00:24 71.2 °F /  21.8 °C 26.8 °F /  -2.9 °C 29.80in /  1009hPa SSW 6.0mph /  9.7km/h 10.0mph /  16.1km/h 19% 0.00in /  0mm 5.00 W/m2
00:28 71.4 °F /  21.9 °C 27.0 °F /  -2.8 °C 29.81in /  1009.4hPa SW 4.9mph /  7.9km/h 7.0mph /  11.3km/h 19% 0.00in /  0mm 0.00 W/m2
00:34 71.4 °F /  21.9 °C 27.0 °F /  -2.8 °C 29.81in /  1009.4hPa SSE 4.9mph /  7.9km/h 13.0mph /  20.9km/h 19% 0.00in /  0mm 5.00 W/m2
00:38 71.4 °F /  21.9 °C 27.0 °F /  -2.8 °C 29.81in /  1009.4hPa SSE 0.9mph /  1.4km/h 6.0mph /  9.7km/h 19% 0.00in /  0mm 5.00 W/m2
00:44 71.2 °F /  21.8 °C 26.8 °F /  -2.9 °C 29.80in /  1009hPa Calm   6.0mph /  9.7km/h 19% 0.00in /  0mm 5.00 W/m2
00:49 71.2 °F /  21.8 °C 26.8 °F /  -2.9 °C 29.80in /  1009hPa Calm   6.0mph /  9.7km/h 19% 0.00in /  0mm 0.00 W/m2
00:53 71.1 °F /  21.7 °C 26.8 °F /  -2.9 °C 29.80in /  1009hPa North 6.0mph /  9.7km/h 7.0mph /  11.3km/h 19% 0.00in /  0mm 5.00 W/m2
00:59 71.1 °F /  21.7 °C 26.8 °F /  -2.9 °C 29.81in /  1009.4hPa WNW 12.1mph /  19.5km/h 14.0mph /  22.5km/h 19% 0.00in /  0mm 5.00 W/m2
01:03 70.9 °F /  21.6 °C 25.3 °F /  -3.7 °C 29.80in /  1009hPa South 0.9mph /  1.4km/h 7.0mph /  11.3km/h 18% 0.00in /  0mm 5.00 W/m2
01:09 70.5 °F /  21.4 °C 25.0 °F /  -3.9 °C 29.80in /  1009hPa Calm   5.0mph /  8km/h 18% 0.00in /  0mm 0.00 W/m2
01:13 70.5 °F /  21.4 °C 25.0 °F /  -3.9 °C 29.81in /  1009.4hPa South 2.9mph /  4.7km/h 10.0mph /  16.1km/h 18% 0.00in /  0mm 5.00 W/m2
01:19 70.2 °F /  21.2 °C 24.6 °F /  -4.1 °C 29.81in /  1009.4hPa ESE 4.9mph /  7.9km/h 12.0mph /  19.3km/h 18% 0.00in /  0mm 0.00 W/m2
01:23 70.3 °F /  21.3 °C 24.8 °F /  -4 °C 29.80in /  1009hPa Calm   11.0mph /  17.7km/h 18% 0.00in /  0mm 5.00 W/m2
01:27 70.3 °F /  21.3 °C 26.1 °F /  -3.3 °C 29.80in /  1009hPa SSE 2.0mph /  3.2km/h 5.0mph /  8km/h 19% 0.00in /  0mm 5.00 W/m2
01:34 70.7 °F /  21.5 °C 26.4 °F /  -3.1 °C 29.80in /  1009hPa Calm   4.0mph /  6.4km/h 19% 0.00in /  0mm 5.00 W/m2
01:38 70.5 °F /  21.4 °C 26.2 °F /  -3.2 °C 29.80in /  1009hPa East 2.9mph /  4.7km/h 4.0mph /  6.4km/h 19% 0.00in /  0mm 0.00 W/m2
01:44 70.3 °F /  21.3 °C 26.1 °F /  -3.3 °C 29.80in /  1009hPa North 2.0mph /  3.2km/h 7.0mph /  11.3km/h 19% 0.00in /  0mm 5.00 W/m2
01:48 70.2 °F /  21.2 °C 26.1 °F /  -3.3 °C 29.80in /  1009hPa NE 4.0mph /  6.4km/h 5.0mph /  8km/h 19% 0.00in /  0mm 5.00 W/m2
01:54 70.2 °F /  21.2 °C 24.6 °F /  -4.1 °C 29.80in /  1009hPa SE 2.0mph /  3.2km/h 5.0mph /  8km/h 18% 0.00in /  0mm 5.00 W/m2
01:58 70.5 °F /  21.4 °C 25.0 °F /  -3.9 °C 29.80in /  1009hPa Calm   4.0mph /  6.4km/h 18% 0.00in /  0mm 0.00 W/m2
02:04 70.3 °F /  21.3 °C 24.8 °F /  -4 °C 29.80in /  1009hPa North 2.9mph /  4.7km/h 6.0mph /  9.7km/h 18% 0.00in /  0mm 0.00 W/m2
02:08 70.2 °F /  21.2 °C 24.6 °F /  -4.1 °C 29.80in /  1009hPa East 2.0mph /  3.2km/h 2.0mph /  3.2km/h 18% 0.00in /  0mm 0.00 W/m2
02:14 70.2 °F /  21.2 °C 24.6 °F /  -4.1 °C 29.80in /  1009hPa East 4.9mph /  7.9km/h 5.0mph /  8km/h 18% 0.00in /  0mm 5.00 W/m2
02:18 70.2 °F /  21.2 °C 24.6 °F /  -4.1 °C 29.79in /  1008.7hPa NNE 2.0mph /  3.2km/h 5.0mph /  8km/h 18% 0.00in /  0mm 5.00 W/m2
02:24 69.8 °F /  21 °C 24.4 °F /  -4.2 °C 29.79in /  1008.7hPa North 8.1mph /  13km/h 9.0mph /  14.5km/h 18% 0.00in /  0mm 5.00 W/m2
02:29 70.0 °F /  21.1 °C 24.4 °F /  -4.2 °C 29.79in /  1008.7hPa East 2.0mph /  3.2km/h 9.0mph /  14.5km/h 18% 0.00in /  0mm 0.00 W/m2
02:33 70.3 °F /  21.3 °C 24.8 °F /  -4 °C 29.79in /  1008.7hPa NNE 4.9mph /  7.9km/h 13.0mph /  20.9km/h 18% 0.00in /  0mm 0.00 W/m2
02:39 70.9 °F /  21.6 °C 25.3 °F /  -3.7 °C 29.79in /  1008.7hPa East 6.0mph /  9.7km/h 9.0mph /  14.5km/h 18% 0.00in /  0mm 0.00 W/m2
02:43 71.1 °F /  21.7 °C 25.3 °F /  -3.7 °C 29.79in /  1008.7hPa North 4.9mph /  7.9km/h 7.0mph /  11.3km/h 18% 0.00in /  0mm 0.00 W/m2
02:49 71.1 °F /  21.7 °C 25.3 °F /  -3.7 °C 29.78in /  1008.4hPa Calm   3.0mph /  4.8km/h 18% 0.00in /  0mm 5.00 W/m2
02:53 71.1 °F /  21.7 °C 25.3 °F /  -3.7 °C 29.78in /  1008.4hPa North 6.0mph /  9.7km/h 10.0mph /  16.1km/h 18% 0.00in /  0mm 5.00 W/m2
02:59 71.2 °F /  21.8 °C 25.5 °F /  -3.6 °C 29.78in /  1008.4hPa North 8.1mph /  13km/h 12.0mph /  19.3km/h 18% 0.00in /  0mm 0.00 W/m2
03:03 71.2 °F /  21.8 °C 25.5 °F /  -3.6 °C 29.78in /  1008.4hPa North 4.9mph /  7.9km/h 11.0mph /  17.7km/h 18% 0.00in /  0mm 0.00 W/m2
03:09 70.9 °F /  21.6 °C 25.3 °F /  -3.7 °C 29.78in /  1008.4hPa North 4.9mph /  7.9km/h 12.0mph /  19.3km/h 18% 0.00in /  0mm 5.00 W/m2
03:13 71.1 °F /  21.7 °C 25.3 °F /  -3.7 °C 29.78in /  1008.4hPa North 2.0mph /  3.2km/h 4.0mph /  6.4km/h 18% 0.00in /  0mm 5.00 W/m2
03:19 70.7 °F /  21.5 °C 25.2 °F /  -3.8 °C 29.78in /  1008.4hPa East 6.0mph /  9.7km/h 11.0mph /  17.7km/h 18% 0.00in /  0mm 0.00 W/m2
03:23 70.7 °F /  21.5 °C 26.4 °F /  -3.1 °C 29.78in /  1008.4hPa Calm   11.0mph /  17.7km/h 19% 0.00in /  0mm 5.00 W/m2
03:29 71.1 °F /  21.7 °C 26.8 °F /  -2.9 °C 29.78in /  1008.4hPa NE 2.9mph /  4.7km/h 15.0mph /  24.1km/h 19% 0.00in /  0mm 5.00 W/m2
03:33 71.2 °F /  21.8 °C 25.5 °F /  -3.6 °C 29.78in /  1008.4hPa North 0.9mph /  1.4km/h 4.0mph /  6.4km/h 18% 0.00in /  0mm 5.00 W/m2
03:39 70.3 °F /  21.3 °C 24.8 °F /  -4 °C 29.78in /  1008.4hPa NNE 2.0mph /  3.2km/h 6.0mph /  9.7km/h 18% 0.00in /  0mm 5.00 W/m2
03:44 69.8 °F /  21 °C 25.7 °F /  -3.5 °C 29.78in /  1008.4hPa East 6.9mph /  11.1km/h 7.0mph /  11.3km/h 19% 0.00in /  0mm 0.00 W/m2
03:48 69.6 °F /  20.9 °C 24.3 °F /  -4.3 °C 29.78in /  1008.4hPa East 4.0mph /  6.4km/h 6.0mph /  9.7km/h 18% 0.00in /  0mm 0.00 W/m2
03:54 68.9 °F /  20.5 °C 25.0 °F /  -3.9 °C 29.78in /  1008.4hPa North 2.0mph /  3.2km/h 3.0mph /  4.8km/h 19% 0.00in /  0mm 5.00 W/m2
03:58 68.2 °F /  20.1 °C 24.3 °F /  -4.3 °C 29.79in /  1008.7hPa North 2.9mph /  4.7km/h 4.0mph /  6.4km/h 19% 0.00in /  0mm 5.00 W/m2
04:04 67.6 °F /  19.8 °C 23.9 °F /  -4.5 °C 29.79in /  1008.7hPa East 2.0mph /  3.2km/h 5.0mph /  8km/h 19% 0.00in /  0mm 5.00 W/m2
04:08 67.6 °F /  19.8 °C 23.9 °F /  -4.5 °C 29.79in /  1008.7hPa East 2.0mph /  3.2km/h 3.0mph /  4.8km/h 19% 0.00in /  0mm 0.00 W/m2
04:14 67.5 °F /  19.7 °C 23.7 °F /  -4.6 °C 29.79in /  1008.7hPa East 0.9mph /  1.4km/h 5.0mph /  8km/h 19% 0.00in /  0mm 5.00 W/m2
04:18 67.5 °F /  19.7 °C 25.0 °F /  -3.9 °C 29.79in /  1008.7hPa East 2.0mph /  3.2km/h 4.0mph /  6.4km/h 20% 0.00in /  0mm 0.00 W/m2
04:24 67.5 °F /  19.7 °C 25.0 °F /  -3.9 °C 29.79in /  1008.7hPa NE 2.0mph /  3.2km/h 3.0mph /  4.8km/h 20% 0.00in /  0mm 5.00 W/m2
04:28 67.5 °F /  19.7 °C 25.0 °F /  -3.9 °C 29.79in /  1008.7hPa NE 2.9mph /  4.7km/h 5.0mph /  8km/h 20% 0.00in /  0mm 5.00 W/m2
04:34 67.8 °F /  19.9 °C 25.3 °F /  -3.7 °C 29.80in /  1009hPa East 2.0mph /  3.2km/h 5.0mph /  8km/h 20% 0.00in /  0mm 5.00 W/m2
04:38 68.0 °F /  20 °C 25.3 °F /  -3.7 °C 29.80in /  1009hPa NNE 2.0mph /  3.2km/h 7.0mph /  11.3km/h 20% 0.00in /  0mm 0.00 W/m2
04:44 68.4 °F /  20.2 °C 24.4 °F /  -4.2 °C 29.80in /  1009hPa North 6.0mph /  9.7km/h 6.0mph /  9.7km/h 19% 0.00in /  0mm 5.00 W/m2
04:48 68.5 °F /  20.3 °C 24.6 °F /  -4.1 °C 29.80in /  1009hPa North 0.9mph /  1.4km/h 5.0mph /  8km/h 19% 0.00in /  0mm 5.00 W/m2
04:54 68.5 °F /  20.3 °C 24.6 °F /  -4.1 °C 29.80in /  1009hPa East 4.9mph /  7.9km/h 7.0mph /  11.3km/h 19% 0.00in /  0mm 5.00 W/m2
04:58 68.7 °F /  20.4 °C 24.8 °F /  -4 °C 29.80in /  1009hPa East 4.0mph /  6.4km/h 7.0mph /  11.3km/h 19% 0.00in /  0mm 0.00 W/m2
05:02 68.7 °F /  20.4 °C 24.8 °F /  -4 °C 29.80in /  1009hPa East 0.9mph /  1.4km/h 8.0mph /  12.9km/h 19% 0.00in /  0mm 5.00 W/m2
05:09 68.7 °F /  20.4 °C 24.8 °F /  -4 °C 29.80in /  1009hPa East 4.0mph /  6.4km/h 5.0mph /  8km/h 19% 0.00in /  0mm 5.00 W/m2
05:13 68.5 °F /  20.3 °C 25.9 °F /  -3.4 °C 29.80in /  1009hPa East 6.9mph /  11.1km/h 7.0mph /  11.3km/h 20% 0.00in /  0mm 0.00 W/m2
05:19 68.7 °F /  20.4 °C 27.1 °F /  -2.7 °C 29.80in /  1009hPa NNE 6.9mph /  11.1km/h 12.0mph /  19.3km/h 21% 0.00in /  0mm 0.00 W/m2
05:23 69.3 °F /  20.7 °C 26.4 °F /  -3.1 °C 29.80in /  1009hPa NNE 4.0mph /  6.4km/h 8.0mph /  12.9km/h 20% 0.00in /  0mm 0.00 W/m2
05:29 69.1 °F /  20.6 °C 27.5 °F /  -2.5 °C 29.80in /  1009hPa East 6.9mph /  11.1km/h 12.0mph /  19.3km/h 21% 0.00in /  0mm 5.00 W/m2
05:33 68.7 °F /  20.4 °C 27.1 °F /  -2.7 °C 29.80in /  1009hPa NNE 4.9mph /  7.9km/h 9.0mph /  14.5km/h 21% 0.00in /  0mm 0.00 W/m2
05:39 67.8 °F /  19.9 °C 26.4 °F /  -3.1 °C 29.80in /  1009hPa East 4.9mph /  7.9km/h 8.0mph /  12.9km/h 21% 0.00in /  0mm 5.00 W/m2
05:43 67.6 °F /  19.8 °C 26.2 °F /  -3.2 °C 29.81in /  1009.4hPa North 4.0mph /  6.4km/h 8.0mph /  12.9km/h 21% 0.00in /  0mm 0.00 W/m2
05:47 67.6 °F /  19.8 °C 26.2 °F /  -3.2 °C 29.81in /  1009.4hPa East 6.0mph /  9.7km/h 6.0mph /  9.7km/h 21% 0.00in /  0mm 5.00 W/m2
05:54 67.6 °F /  19.8 °C 27.5 °F /  -2.5 °C 29.81in /  1009.4hPa NNE 0.9mph /  1.4km/h 5.0mph /  8km/h 22% 0.00in /  0mm 7.00 W/m2
05:58 67.6 °F /  19.8 °C 27.5 °F /  -2.5 °C 29.81in /  1009.4hPa North 6.0mph /  9.7km/h 8.0mph /  12.9km/h 22% 0.00in /  0mm 7.00 W/m2
06:04 67.5 °F /  19.7 °C 27.3 °F /  -2.6 °C 29.81in /  1009.4hPa NNE 4.9mph /  7.9km/h 6.0mph /  9.7km/h 22% 0.00in /  0mm 9.00 W/m2
06:08 67.5 °F /  19.7 °C 27.3 °F /  -2.6 °C 29.81in /  1009.4hPa East 2.0mph /  3.2km/h 6.0mph /  9.7km/h 22% 0.00in /  0mm 14.00 W/m2
06:14 67.8 °F /  19.9 °C 27.5 °F /  -2.5 °C 29.81in /  1009.4hPa East 2.9mph /  4.7km/h 7.0mph /  11.3km/h 22% 0.00in /  0mm 16.00 W/m2
06:18 67.8 °F /  19.9 °C 27.5 °F /  -2.5 °C 29.81in /  1009.4hPa NNE 4.9mph /  7.9km/h 9.0mph /  14.5km/h 22% 0.00in /  0mm 19.00 W/m2
06:24 67.6 °F /  19.8 °C 28.6 °F /  -1.9 °C 29.81in /  1009.4hPa NNE 2.0mph /  3.2km/h 5.0mph /  8km/h 23% 0.00in /  0mm 23.00 W/m2
06:28 67.5 °F /  19.7 °C 28.4 °F /  -2 °C 29.81in /  1009.4hPa East 4.0mph /  6.4km/h 7.0mph /  11.3km/h 23% 0.00in /  0mm 25.00 W/m2
06:33 67.6 °F /  19.8 °C 28.6 °F /  -1.9 °C 29.82in /  1009.7hPa NNE 8.1mph /  13km/h 8.0mph /  12.9km/h 23% 0.00in /  0mm 28.00 W/m2
06:39 68.4 °F /  20.2 °C 29.1 °F /  -1.6 °C 29.82in /  1009.7hPa East 8.9mph /  14.3km/h 10.0mph /  16.1km/h 23% 0.00in /  0mm 30.00 W/m2
06:43 68.5 °F /  20.3 °C 29.3 °F /  -1.5 °C 29.82in /  1009.7hPa NNE 6.0mph /  9.7km/h 8.0mph /  12.9km/h 23% 0.00in /  0mm 40.00 W/m2
06:49 69.3 °F /  20.7 °C 28.8 °F /  -1.8 °C 29.82in /  1009.7hPa East 6.9mph /  11.1km/h 10.0mph /  16.1km/h 22% 0.00in /  0mm 83.00 W/m2
06:53 70.0 °F /  21.1 °C 29.3 °F /  -1.5 °C 29.82in /  1009.7hPa NNE 8.9mph /  14.3km/h 12.0mph /  19.3km/h 22% 0.00in /  0mm 98.00 W/m2
06:59 70.5 °F /  21.4 °C 29.8 °F /  -1.2 °C 29.82in /  1009.7hPa East 6.9mph /  11.1km/h 14.0mph /  22.5km/h 22% 0.00in /  0mm 120.00 W/m2
07:03 70.5 °F /  21.4 °C 29.8 °F /  -1.2 °C 29.82in /  1009.7hPa NNE 11.0mph /  17.7km/h 13.0mph /  20.9km/h 22% 0.00in /  0mm 137.00 W/m2
07:07 70.7 °F /  21.5 °C 30.0 °F /  -1.1 °C 29.82in /  1009.7hPa East 12.1mph /  19.5km/h 14.0mph /  22.5km/h 22% 0.00in /  0mm 156.00 W/m2
07:14 70.9 °F /  21.6 °C 28.9 °F /  -1.7 °C 29.82in /  1009.7hPa NE 11.0mph /  17.7km/h 14.0mph /  22.5km/h 21% 0.00in /  0mm 179.00 W/m2
07:18 70.9 °F /  21.6 °C 30.2 °F /  -1 °C 29.83in /  1010hPa East 4.9mph /  7.9km/h 18.0mph /  29km/h 22% 0.00in /  0mm 197.00 W/m2
07:24 71.1 °F /  21.7 °C 29.1 °F /  -1.6 °C 29.83in /  1010hPa East 4.9mph /  7.9km/h 12.0mph /  19.3km/h 21% 0.00in /  0mm 220.00 W/m2
07:28 71.2 °F /  21.8 °C 30.4 °F /  -0.9 °C 29.83in /  1010hPa NNE 4.9mph /  7.9km/h 13.0mph /  20.9km/h 22% 0.00in /  0mm 234.00 W/m2
07:34 71.4 °F /  21.9 °C 29.5 °F /  -1.4 °C 29.83in /  1010hPa NNE 12.1mph /  19.5km/h 15.0mph /  24.1km/h 21% 0.00in /  0mm 258.00 W/m2
07:38 71.4 °F /  21.9 °C 29.5 °F /  -1.4 °C 29.83in /  1010hPa NE 11.0mph /  17.7km/h 13.0mph /  20.9km/h 21% 0.00in /  0mm 272.00 W/m2
07:44 71.6 °F /  22 °C 29.7 °F /  -1.3 °C 29.83in /  1010hPa NE 8.9mph /  14.3km/h 13.0mph /  20.9km/h 21% 0.00in /  0mm 287.00 W/m2
07:48 71.8 °F /  22.1 °C 29.7 °F /  -1.3 °C 29.83in /  1010hPa East 4.9mph /  7.9km/h 13.0mph /  20.9km/h 21% 0.00in /  0mm 302.00 W/m2
07:54 72.1 °F /  22.3 °C 30.0 °F /  -1.1 °C 29.83in /  1010hPa NE 4.0mph /  6.4km/h 12.0mph /  19.3km/h 21% 0.00in /  0mm 322.00 W/m2
07:58 72.5 °F /  22.5 °C 30.4 °F /  -0.9 °C 29.83in /  1010hPa East 4.9mph /  7.9km/h 12.0mph /  19.3km/h 21% 0.00in /  0mm 334.00 W/m2
08:02 72.9 °F /  22.7 °C 30.6 °F /  -0.8 °C 29.83in /  1010hPa NNE 10.1mph /  16.3km/h 16.0mph /  25.7km/h 21% 0.00in /  0mm 346.00 W/m2
08:09 73.0 °F /  22.8 °C 30.7 °F /  -0.7 °C 29.83in /  1010hPa NNE 8.1mph /  13km/h 10.0mph /  16.1km/h 21% 0.00in /  0mm 366.00 W/m2
08:13 73.2 °F /  22.9 °C 29.7 °F /  -1.3 °C 29.83in /  1010hPa East 4.9mph /  7.9km/h 12.0mph /  19.3km/h 20% 0.00in /  0mm 383.00 W/m2
08:19 73.4 °F /  23 °C 29.8 °F /  -1.2 °C 29.83in /  1010hPa East 2.0mph /  3.2km/h 13.0mph /  20.9km/h 20% 0.00in /  0mm 404.00 W/m2
08:23 73.9 °F /  23.3 °C 30.4 °F /  -0.9 °C 29.83in /  1010hPa East 10.1mph /  16.3km/h 12.0mph /  19.3km/h 20% 0.00in /  0mm 420.00 W/m2
08:29 74.3 °F /  23.5 °C 30.6 °F /  -0.8 °C 29.83in /  1010hPa NE 8.9mph /  14.3km/h 11.0mph /  17.7km/h 20% 0.00in /  0mm 420.00 W/m2
08:33 74.7 °F /  23.7 °C 30.9 °F /  -0.6 °C 29.83in /  1010hPa East 4.9mph /  7.9km/h 15.0mph /  24.1km/h 20% 0.00in /  0mm 471.00 W/m2
08:39 75.0 °F /  23.9 °C 31.3 °F /  -0.4 °C 29.83in /  1010hPa East 10.1mph /  16.3km/h 12.0mph /  19.3km/h 20% 0.00in /  0mm 497.00 W/m2
08:43 75.0 °F /  23.9 °C 31.3 °F /  -0.4 °C 29.83in /  1010hPa NE 8.9mph /  14.3km/h 12.0mph /  19.3km/h 20% 0.00in /  0mm 513.00 W/m2
08:49 75.7 °F /  24.3 °C 30.6 °F /  -0.8 °C 29.82in /  1009.7hPa East 10.1mph /  16.3km/h 13.0mph /  20.9km/h 19% 0.00in /  0mm 534.00 W/m2
08:53 76.3 °F /  24.6 °C 30.9 °F /  -0.6 °C 29.82in /  1009.7hPa NE 12.1mph /  19.5km/h 16.0mph /  25.7km/h 19% 0.00in /  0mm 552.00 W/m2
08:58 76.3 °F /  24.6 °C 30.9 °F /  -0.6 °C 29.82in /  1009.7hPa East 6.0mph /  9.7km/h 20.0mph /  32.2km/h 19% 0.00in /  0mm 566.00 W/m2
09:04 76.5 °F /  24.7 °C 31.1 °F /  -0.5 °C 29.82in /  1009.7hPa Calm   15.0mph /  24.1km/h 19% 0.00in /  0mm 591.00 W/m2
09:08 77.0 °F /  25 °C 31.6 °F /  -0.2 °C 29.82in /  1009.7hPa NNE 10.1mph /  16.3km/h 14.0mph /  22.5km/h 19% 0.00in /  0mm 605.00 W/m2
09:14 77.4 °F /  25.2 °C 31.8 °F /  -0.1 °C 29.83in /  1010hPa East 4.0mph /  6.4km/h 14.0mph /  22.5km/h 19% 0.00in /  0mm 621.00 W/m2
09:18 77.7 °F /  25.4 °C 32.2 °F /  0.1 °C 29.83in /  1010hPa ENE 10.1mph /  16.3km/h 15.0mph /  24.1km/h 19% 0.00in /  0mm 633.00 W/m2
09:24 78.3 °F /  25.7 °C 32.5 °F /  0.3 °C 29.83in /  1010hPa NNE 10.1mph /  16.3km/h 10.0mph /  16.1km/h 19% 0.00in /  0mm 654.00 W/m2
09:28 78.3 °F /  25.7 °C 32.5 °F /  0.3 °C 29.82in /  1009.7hPa East 16.1mph /  25.9km/h 21.0mph /  33.8km/h 19% 0.00in /  0mm 663.00 W/m2
09:34 78.1 °F /  25.6 °C 32.5 °F /  0.3 °C 29.82in /  1009.7hPa NNE 17.9mph /  28.8km/h 24.0mph /  38.6km/h 19% 0.00in /  0mm 680.00 W/m2
09:38 77.5 °F /  25.3 °C 32.0 °F /  0 °C 29.82in /  1009.7hPa NNE 16.1mph /  25.9km/h 23.0mph /  37km/h 19% 0.00in /  0mm 694.00 W/m2
09:44 78.1 °F /  25.6 °C 32.5 °F /  0.3 °C 29.83in /  1010hPa East 10.1mph /  16.3km/h 13.0mph /  20.9km/h 19% 0.00in /  0mm 708.00 W/m2
09:48 79.0 °F /  26.1 °C 31.8 °F /  -0.1 °C 29.82in /  1009.7hPa East 4.0mph /  6.4km/h 13.0mph /  20.9km/h 18% 0.00in /  0mm 721.00 W/m2
09:53 79.9 °F /  26.6 °C 32.5 °F /  0.3 °C 29.82in /  1009.7hPa East 2.0mph /  3.2km/h 14.0mph /  22.5km/h 18% 0.00in /  0mm 728.00 W/m2
09:59 80.1 °F /  26.7 °C 32.7 °F /  0.4 °C 29.82in /  1009.7hPa ENE 12.1mph /  19.5km/h 16.0mph /  25.7km/h 18% 0.00in /  0mm 749.00 W/m2
10:03 80.2 °F /  26.8 °C 32.9 °F /  0.5 °C 29.82in /  1009.7hPa SE 2.9mph /  4.7km/h 11.0mph /  17.7km/h 18% 0.00in /  0mm 761.00 W/m2
10:09 80.2 °F /  26.8 °C 32.9 °F /  0.5 °C 29.82in /  1009.7hPa East 14.1mph /  22.7km/h 20.0mph /  32.2km/h 18% 0.00in /  0mm 777.00 W/m2
10:13 79.2 °F /  26.2 °C 32.0 °F /  0 °C 29.82in /  1009.7hPa ENE 16.1mph /  25.9km/h 17.0mph /  27.4km/h 18% 0.00in /  0mm 784.00 W/m2
10:19 79.5 °F /  26.4 °C 33.6 °F /  0.9 °C 29.82in /  1009.7hPa East 14.1mph /  22.7km/h 18.0mph /  29km/h 19% 0.00in /  0mm 810.00 W/m2
10:23 79.5 °F /  26.4 °C 32.4 °F /  0.2 °C 29.82in /  1009.7hPa East 16.1mph /  25.9km/h 20.0mph /  32.2km/h 18% 0.00in /  0mm 819.00 W/m2
10:29 79.7 °F /  26.5 °C 32.4 °F /  0.2 °C 29.82in /  1009.7hPa NE 10.1mph /  16.3km/h 21.0mph /  33.8km/h 18% 0.00in /  0mm 831.00 W/m2
10:33 79.9 °F /  26.6 °C 34.0 °F /  1.1 °C 29.82in /  1009.7hPa ESE 4.0mph /  6.4km/h 9.0mph /  14.5km/h 19% 0.00in /  0mm 847.00 W/m2
10:39 81.9 °F /  27.7 °C 34.2 °F /  1.2 °C 29.82in /  1009.7hPa East 6.0mph /  9.7km/h 13.0mph /  20.9km/h 18% 0.00in /  0mm 863.00 W/m2
10:44 82.0 °F /  27.8 °C 32.9 °F /  0.5 °C 29.82in /  1009.7hPa East 12.1mph /  19.5km/h 21.0mph /  33.8km/h 17% 0.00in /  0mm 868.00 W/m2
10:48 81.3 °F /  27.4 °C 33.8 °F /  1 °C 29.82in /  1009.7hPa NE 8.9mph /  14.3km/h 11.0mph /  17.7km/h 18% 0.00in /  0mm 877.00 W/m2
10:54 82.0 °F /  27.8 °C 32.9 °F /  0.5 °C 29.81in /  1009.4hPa East 2.0mph /  3.2km/h 7.0mph /  11.3km/h 17% 0.00in /  0mm 886.00 W/m2
10:58 83.1 °F /  28.4 °C 33.8 °F /  1 °C 29.81in /  1009.4hPa East 12.1mph /  19.5km/h 16.0mph /  25.7km/h 17% 0.00in /  0mm 882.00 W/m2
11:04 82.6 °F /  28.1 °C 33.4 °F /  0.8 °C 29.81in /  1009.4hPa East 0.9mph /  1.4km/h 9.0mph /  14.5km/h 17% 0.00in /  0mm 895.00 W/m2
11:08 83.5 °F /  28.6 °C 34.2 °F /  1.2 °C 29.81in /  1009.4hPa NNE 4.0mph /  6.4km/h 9.0mph /  14.5km/h 17% 0.00in /  0mm 902.00 W/m2
11:14 83.7 °F /  28.7 °C 34.2 °F /  1.2 °C 29.81in /  1009.4hPa East 6.0mph /  9.7km/h 14.0mph /  22.5km/h 17% 0.00in /  0mm 909.00 W/m2
11:18 82.9 °F /  28.3 °C 33.6 °F /  0.9 °C 29.80in /  1009hPa ESE 0.9mph /  1.4km/h 17.0mph /  27.4km/h 17% 0.00in /  0mm 912.00 W/m2
11:24 83.1 °F /  28.4 °C 33.8 °F /  1 °C 29.80in /  1009hPa NE 8.1mph /  13km/h 11.0mph /  17.7km/h 17% 0.00in /  0mm 925.00 W/m2
11:28 84.0 °F /  28.9 °C 34.5 °F /  1.4 °C 29.80in /  1009hPa East 4.9mph /  7.9km/h 7.0mph /  11.3km/h 17% 0.00in /  0mm 932.00 W/m2
11:33 84.6 °F /  29.2 °C 33.4 °F /  0.8 °C 29.80in /  1009hPa NNE 10.1mph /  16.3km/h 19.0mph /  30.6km/h 16% 0.00in /  0mm 933.00 W/m2
11:39 83.8 °F /  28.8 °C 34.3 °F /  1.3 °C 29.80in /  1009hPa East 4.9mph /  7.9km/h 11.0mph /  17.7km/h 17% 0.00in /  0mm 944.00 W/m2
11:43 84.2 °F /  29 °C 34.7 °F /  1.5 °C 29.80in /  1009hPa NNE 10.1mph /  16.3km/h 15.0mph /  24.1km/h 17% 0.00in /  0mm 958.00 W/m2
11:49 84.2 °F /  29 °C 34.7 °F /  1.5 °C 29.79in /  1008.7hPa East 2.0mph /  3.2km/h 14.0mph /  22.5km/h 17% 0.00in /  0mm 960.00 W/m2
11:53 84.7 °F /  29.3 °C 35.1 °F /  1.7 °C 29.79in /  1008.7hPa North 4.9mph /  7.9km/h 9.0mph /  14.5km/h 17% 0.00in /  0mm 962.00 W/m2
11:59 84.7 °F /  29.3 °C 33.6 °F /  0.9 °C 29.79in /  1008.7hPa East 6.0mph /  9.7km/h 21.0mph /  33.8km/h 16% 0.00in /  0mm 969.00 W/m2
12:03 84.4 °F /  29.1 °C 33.3 °F /  0.7 °C 29.79in /  1008.7hPa East 10.1mph /  16.3km/h 20.0mph /  32.2km/h 16% 0.00in /  0mm 970.00 W/m2
12:09 84.0 °F /  28.9 °C 33.1 °F /  0.6 °C 29.79in /  1008.7hPa East 0.9mph /  1.4km/h 10.0mph /  16.1km/h 16% 0.00in /  0mm 974.00 W/m2
12:13 84.6 °F /  29.2 °C 33.4 °F /  0.8 °C 29.79in /  1008.7hPa NE 4.9mph /  7.9km/h 7.0mph /  11.3km/h 16% 0.00in /  0mm 977.00 W/m2
12:17 84.9 °F /  29.4 °C 33.8 °F /  1 °C 29.79in /  1008.7hPa NE 6.0mph /  9.7km/h 15.0mph /  24.1km/h 16% 0.00in /  0mm 979.00 W/m2
12:23 84.4 °F /  29.1 °C 34.9 °F /  1.6 °C 29.79in /  1008.7hPa North 12.1mph /  19.5km/h 23.0mph /  37km/h 17% 0.00in /  0mm 986.00 W/m2
12:28 83.5 °F /  28.6 °C 34.2 °F /  1.2 °C 29.79in /  1008.7hPa North 4.9mph /  7.9km/h 14.0mph /  22.5km/h 17% 0.00in /  0mm 983.00 W/m2
12:34 83.5 °F /  28.6 °C 34.2 °F /  1.2 °C 29.78in /  1008.4hPa East 4.0mph /  6.4km/h 7.0mph /  11.3km/h 17% 0.00in /  0mm 979.00 W/m2
12:38 84.0 °F /  28.9 °C 34.5 °F /  1.4 °C 29.77in /  1008hPa East 12.1mph /  19.5km/h 18.0mph /  29km/h 17% 0.00in /  0mm 977.00 W/m2
12:44 84.6 °F /  29.2 °C 33.4 °F /  0.8 °C 29.77in /  1008hPa ENE 12.1mph /  19.5km/h 17.0mph /  27.4km/h 16% 0.00in /  0mm 988.00 W/m2
12:48 84.4 °F /  29.1 °C 33.3 °F /  0.7 °C 29.77in /  1008hPa Calm   6.0mph /  9.7km/h 16% 0.00in /  0mm 997.00 W/m2
12:54 85.5 °F /  29.7 °C 34.2 °F /  1.2 °C 29.77in /  1008hPa NNW 2.9mph /  4.7km/h 12.0mph /  19.3km/h 16% 0.00in /  0mm 995.00 W/m2
12:58 86.5 °F /  30.3 °C 35.1 °F /  1.7 °C 29.77in /  1008hPa NNE 0.9mph /  1.4km/h 5.0mph /  8km/h 16% 0.00in /  0mm 1005.00 W/m2
13:02 87.4 °F /  30.8 °C 35.8 °F /  2.1 °C 29.76in /  1007.7hPa NE 6.0mph /  9.7km/h 6.0mph /  9.7km/h 16% 0.00in /  0mm 1049.00 W/m2
13:09 87.4 °F /  30.8 °C 35.8 °F /  2.1 °C 29.76in /  1007.7hPa ESE 2.0mph /  3.2km/h 10.0mph /  16.1km/h 16% 0.00in /  0mm 1100.00 W/m2
13:13 87.8 °F /  31 °C 36.0 °F /  2.2 °C 29.76in /  1007.7hPa NE 6.0mph /  9.7km/h 14.0mph /  22.5km/h 16% 0.00in /  0mm 953.00 W/m2
13:19 84.2 °F /  29 °C 33.1 °F /  0.6 °C 29.76in /  1007.7hPa NNE 8.9mph /  14.3km/h 16.0mph /  25.7km/h 16% 0.00in /  0mm 283.00 W/m2
13:23 84.0 °F /  28.9 °C 33.1 °F /  0.6 °C 29.75in /  1007.3hPa East 2.9mph /  4.7km/h 11.0mph /  17.7km/h 16% 0.00in /  0mm 1104.00 W/m2
13:29 83.1 °F /  28.4 °C 33.8 °F /  1 °C 29.75in /  1007.3hPa East 0.9mph /  1.4km/h 12.0mph /  19.3km/h 17% 0.00in /  0mm 225.00 W/m2
13:33 83.3 °F /  28.5 °C 34.0 °F /  1.1 °C 29.75in /  1007.3hPa North 2.9mph /  4.7km/h 4.0mph /  6.4km/h 17% 0.00in /  0mm 1097.00 W/m2
13:39 84.7 °F /  29.3 °C 33.6 °F /  0.9 °C 29.74in /  1007hPa East 2.9mph /  4.7km/h 3.0mph /  4.8km/h 16% 0.00in /  0mm 262.00 W/m2
13:43 84.6 °F /  29.2 °C 33.4 °F /  0.8 °C 29.74in /  1007hPa East 8.9mph /  14.3km/h 15.0mph /  24.1km/h 16% 0.00in /  0mm 255.00 W/m2
13:49 83.1 °F /  28.4 °C 32.4 °F /  0.2 °C 29.74in /  1007hPa Calm   10.0mph /  16.1km/h 16% 0.00in /  0mm 207.00 W/m2
13:53 82.9 °F /  28.3 °C 33.6 °F /  0.9 °C 29.73in /  1006.7hPa NNW 0.9mph /  1.4km/h 4.0mph /  6.4km/h 17% 0.00in /  0mm 220.00 W/m2
13:59 83.1 °F /  28.4 °C 33.8 °F /  1 °C 29.73in /  1006.7hPa NNE 6.0mph /  9.7km/h 13.0mph /  20.9km/h 17% 0.00in /  0mm 301.00 W/m2
14:03 83.3 °F /  28.5 °C 34.0 °F /  1.1 °C 29.73in /  1006.7hPa North 6.9mph /  11.1km/h 13.0mph /  20.9km/h 17% 0.00in /  0mm 1065.00 W/m2
14:09 85.1 °F /  29.5 °C 33.8 °F /  1 °C 29.73in /  1006.7hPa North 10.1mph /  16.3km/h 13.0mph /  20.9km/h 16% 0.00in /  0mm 1078.00 W/m2
14:13 84.6 °F /  29.2 °C 33.4 °F /  0.8 °C 29.73in /  1006.7hPa NNE 10.1mph /  16.3km/h 15.0mph /  24.1km/h 16% 0.00in /  0mm 330.00 W/m2
14:17 83.5 °F /  28.6 °C 34.2 °F /  1.2 °C 29.73in /  1006.7hPa NNE 6.9mph /  11.1km/h 12.0mph /  19.3km/h 17% 0.00in /  0mm 225.00 W/m2
14:24 82.8 °F /  28.2 °C 33.4 °F /  0.8 °C 29.73in /  1006.7hPa East 6.9mph /  11.1km/h 15.0mph /  24.1km/h 17% 0.00in /  0mm 237.00 W/m2
14:28 82.8 °F /  28.2 °C 33.4 °F /  0.8 °C 29.73in /  1006.7hPa NNE 2.9mph /  4.7km/h 10.0mph /  16.1km/h 17% 0.00in /  0mm 248.00 W/m2
14:34 83.5 °F /  28.6 °C 34.2 °F /  1.2 °C 29.73in /  1006.7hPa NNE 8.9mph /  14.3km/h 15.0mph /  24.1km/h 17% 0.00in /  0mm 953.00 W/m2
14:38 84.7 °F /  29.3 °C 33.6 °F /  0.9 °C 29.73in /  1006.7hPa NNE 2.9mph /  4.7km/h 10.0mph /  16.1km/h 16% 0.00in /  0mm 1014.00 W/m2
14:44 85.8 °F /  29.9 °C 34.5 °F /  1.4 °C 29.72in /  1006.3hPa NNE 4.0mph /  6.4km/h 5.0mph /  8km/h 16% 0.00in /  0mm 872.00 W/m2
14:48 86.0 °F /  30 °C 34.5 °F /  1.4 °C 29.72in /  1006.3hPa North 8.1mph /  13km/h 16.0mph /  25.7km/h 16% 0.00in /  0mm 290.00 W/m2
14:54 84.9 °F /  29.4 °C 33.8 °F /  1 °C 29.72in /  1006.3hPa North 4.0mph /  6.4km/h 10.0mph /  16.1km/h 16% 0.00in /  0mm 923.00 W/m2
14:58 85.3 °F /  29.6 °C 34.0 °F /  1.1 °C 29.72in /  1006.3hPa North 11.0mph /  17.7km/h 18.0mph /  29km/h 16% 0.00in /  0mm 714.00 W/m2
15:04 84.9 °F /  29.4 °C 33.8 °F /  1 °C 29.72in /  1006.3hPa East 0.9mph /  1.4km/h 10.0mph /  16.1km/h 16% 0.00in /  0mm 902.00 W/m2
15:06 84.9 °F /  29.4 °C 33.8 °F /  1 °C 29.71in /  1006hPa NNE 8.1mph /  13km/h 13.0mph /  20.9km/h 16% 0.00in /  0mm 902.00 W/m2
15:13 85.5 °F /  29.7 °C 34.2 °F /  1.2 °C 29.71in /  1006hPa East 11.0mph /  17.7km/h 15.0mph /  24.1km/h 16% 0.00in /  0mm 886.00 W/m2
15:17 86.0 °F /  30 °C 34.5 °F /  1.4 °C 29.71in /  1006hPa NNE 8.9mph /  14.3km/h 10.0mph /  16.1km/h 16% 0.00in /  0mm 860.00 W/m2
15:49 88.2 °F /  31.2 °C 36.3 °F /  2.4 °C 29.70in /  1005.6hPa SSW 2.9mph /  4.7km/h 6.0mph /  9.7km/h 16% 0.00in /  0mm 821.00 W/m2
15:53 88.2 °F /  31.2 °C 34.7 °F /  1.5 °C 29.70in /  1005.6hPa NNW 4.9mph /  7.9km/h 9.0mph /  14.5km/h 15% 0.00in /  0mm 800.00 W/m2
15:59 88.0 °F /  31.1 °C 34.5 °F /  1.4 °C 29.70in /  1005.6hPa North 8.1mph /  13km/h 16.0mph /  25.7km/h 15% 0.00in /  0mm 752.00 W/m2
16:03 86.2 °F /  30.1 °C 33.1 °F /  0.6 °C 29.70in /  1005.6hPa North 16.1mph /  25.9km/h 16.0mph /  25.7km/h 15% 0.00in /  0mm 290.00 W/m2
16:08 84.6 °F /  29.2 °C 33.4 °F /  0.8 °C 29.70in /  1005.6hPa East 2.9mph /  4.7km/h 10.0mph /  16.1km/h 16% 0.00in /  0mm 211.00 W/m2
16:14 83.8 °F /  28.8 °C 32.9 °F /  0.5 °C 29.70in /  1005.6hPa NNW 4.9mph /  7.9km/h 10.0mph /  16.1km/h 16% 0.00in /  0mm 183.00 W/m2
16:18 83.7 °F /  28.7 °C 32.7 °F /  0.4 °C 29.70in /  1005.6hPa East 13.0mph /  20.9km/h 19.0mph /  30.6km/h 16% 0.00in /  0mm 176.00 W/m2
16:24 83.5 °F /  28.6 °C 32.5 °F /  0.3 °C 29.70in /  1005.6hPa NNE 4.9mph /  7.9km/h 15.0mph /  24.1km/h 16% 0.00in /  0mm 165.00 W/m2
16:28 83.3 °F /  28.5 °C 32.4 °F /  0.2 °C 29.70in /  1005.6hPa East 4.0mph /  6.4km/h 10.0mph /  16.1km/h 16% 0.00in /  0mm 160.00 W/m2
16:34 83.1 °F /  28.4 °C 32.4 °F /  0.2 °C 29.70in /  1005.6hPa East 6.0mph /  9.7km/h 12.0mph /  19.3km/h 16% 0.00in /  0mm 156.00 W/m2
16:38 83.3 °F /  28.5 °C 32.4 °F /  0.2 °C 29.70in /  1005.6hPa East 4.0mph /  6.4km/h 14.0mph /  22.5km/h 16% 0.00in /  0mm 155.00 W/m2
16:44 83.1 °F /  28.4 °C 32.4 °F /  0.2 °C 29.70in /  1005.6hPa East 4.0mph /  6.4km/h 12.0mph /  19.3km/h 16% 0.00in /  0mm 151.00 W/m2
16:48 82.9 °F /  28.3 °C 32.2 °F /  0.1 °C 29.70in /  1005.6hPa East 11.0mph /  17.7km/h 11.0mph /  17.7km/h 16% 0.00in /  0mm 151.00 W/m2
16:54 82.9 °F /  28.3 °C 32.2 °F /  0.1 °C 29.70in /  1005.6hPa North 4.9mph /  7.9km/h 11.0mph /  17.7km/h 16% 0.00in /  0mm 158.00 W/m2
16:59 82.8 °F /  28.2 °C 32.0 °F /  0 °C 29.70in /  1005.6hPa NNE 10.1mph /  16.3km/h 10.0mph /  16.1km/h 16% 0.00in /  0mm 158.00 W/m2
17:03 82.8 °F /  28.2 °C 32.0 °F /  0 °C 29.70in /  1005.6hPa Calm   5.0mph /  8km/h 16% 0.00in /  0mm 160.00 W/m2
17:09 82.9 °F /  28.3 °C 32.2 °F /  0.1 °C 29.70in /  1005.6hPa NNE 4.0mph /  6.4km/h 4.0mph /  6.4km/h 16% 0.00in /  0mm 155.00 W/m2
17:13 82.9 °F /  28.3 °C 32.2 °F /  0.1 °C 29.70in /  1005.6hPa East 4.0mph /  6.4km/h 6.0mph /  9.7km/h 16% 0.00in /  0mm 148.00 W/m2
17:19 82.9 °F /  28.3 °C 32.2 °F /  0.1 °C 29.70in /  1005.6hPa East 4.9mph /  7.9km/h 5.0mph /  8km/h 16% 0.00in /  0mm 142.00 W/m2
17:23 82.8 °F /  28.2 °C 32.0 °F /  0 °C 29.70in /  1005.6hPa East 0.9mph /  1.4km/h 3.0mph /  4.8km/h 16% 0.00in /  0mm 148.00 W/m2
17:29 82.9 °F /  28.3 °C 32.2 °F /  0.1 °C 29.70in /  1005.6hPa North 2.0mph /  3.2km/h 3.0mph /  4.8km/h 16% 0.00in /  0mm 141.00 W/m2
17:33 82.9 °F /  28.3 °C 32.2 °F /  0.1 °C 29.70in /  1005.6hPa NNE 4.0mph /  6.4km/h 4.0mph /  6.4km/h 16% 0.00in /  0mm 137.00 W/m2
17:39 82.9 °F /  28.3 °C 32.2 °F /  0.1 °C 29.70in /  1005.6hPa East 4.0mph /  6.4km/h 6.0mph /  9.7km/h 16% 0.00in /  0mm 134.00 W/m2
17:43 82.9 °F /  28.3 °C 32.2 °F /  0.1 °C 29.70in /  1005.6hPa North 2.0mph /  3.2km/h 2.0mph /  3.2km/h 16% 0.00in /  0mm 132.00 W/m2
17:48 82.8 °F /  28.2 °C 32.0 °F /  0 °C 29.70in /  1005.6hPa East 2.0mph /  3.2km/h 6.0mph /  9.7km/h 16% 0.00in /  0mm 120.00 W/m2
17:54 82.8 °F /  28.2 °C 32.0 °F /  0 °C 29.71in /  1006hPa East 6.0mph /  9.7km/h 7.0mph /  11.3km/h 16% 0.00in /  0mm 151.00 W/m2
17:58 82.6 °F /  28.1 °C 31.8 °F /  -0.1 °C 29.70in /  1005.6hPa NNE 6.0mph /  9.7km/h 11.0mph /  17.7km/h 16% 0.00in /  0mm 86.00 W/m2
18:04 82.2 °F /  27.9 °C 33.1 °F /  0.6 °C 29.71in /  1006hPa NNE 4.0mph /  6.4km/h 7.0mph /  11.3km/h 17% 0.00in /  0mm 72.00 W/m2
18:08 82.0 °F /  27.8 °C 32.9 °F /  0.5 °C 29.71in /  1006hPa North 2.0mph /  3.2km/h 4.0mph /  6.4km/h 17% 0.00in /  0mm 128.00 W/m2
18:14 82.2 °F /  27.9 °C 33.1 °F /  0.6 °C 29.71in /  1006hPa Calm   6.0mph /  9.7km/h 17% 0.00in /  0mm 74.00 W/m2
18:18 82.2 °F /  27.9 °C 33.1 °F /  0.6 °C 29.71in /  1006hPa North 6.9mph /  11.1km/h 9.0mph /  14.5km/h 17% 0.00in /  0mm 53.00 W/m2
18:24 82.0 °F /  27.8 °C 31.5 °F /  -0.3 °C 29.71in /  1006hPa North 4.9mph /  7.9km/h 7.0mph /  11.3km/h 16% 0.00in /  0mm 74.00 W/m2
18:28 82.0 °F /  27.8 °C 32.9 °F /  0.5 °C 29.71in /  1006hPa East 2.0mph /  3.2km/h 5.0mph /  8km/h 17% 0.00in /  0mm 49.00 W/m2
18:33 82.0 °F /  27.8 °C 32.9 °F /  0.5 °C 29.71in /  1006hPa Calm   3.0mph /  4.8km/h 17% 0.00in /  0mm 37.00 W/m2
18:39 81.9 °F /  27.7 °C 32.7 °F /  0.4 °C 29.71in /  1006hPa North 2.0mph /  3.2km/h 4.0mph /  6.4km/h 17% 0.00in /  0mm 28.00 W/m2
18:43 81.7 °F /  27.6 °C 32.5 °F /  0.3 °C 29.71in /  1006hPa East 2.9mph /  4.7km/h 4.0mph /  6.4km/h 17% 0.00in /  0mm 26.00 W/m2
18:49 81.3 °F /  27.4 °C 32.4 °F /  0.2 °C 29.70in /  1005.6hPa Calm     17% 0.00in /  0mm 21.00 W/m2
18:53 81.0 °F /  27.2 °C 32.0 °F /  0 °C 29.71in /  1006hPa North 0.9mph /  1.4km/h 3.0mph /  4.8km/h 17% 0.00in /  0mm 19.00 W/m2
18:59 80.4 °F /  26.9 °C 31.6 °F /  -0.2 °C 29.71in /  1006hPa East 0.9mph /  1.4km/h 3.0mph /  4.8km/h 17% 0.00in /  0mm 18.00 W/m2
19:03 80.2 °F /  26.8 °C 31.5 °F /  -0.3 °C 29.71in /  1006hPa Calm   1.0mph /  1.6km/h 17% 0.00in /  0mm 14.00 W/m2
19:09 80.1 °F /  26.7 °C 31.3 °F /  -0.4 °C 29.71in /  1006hPa North 2.9mph /  4.7km/h 4.0mph /  6.4km/h 17% 0.00in /  0mm 11.00 W/m2
19:13 80.1 °F /  26.7 °C 31.3 °F /  -0.4 °C 29.71in /  1006hPa North 2.0mph /  3.2km/h 2.0mph /  3.2km/h 17% 0.00in /  0mm 7.00 W/m2
19:17 79.9 °F /  26.6 °C 31.1 °F /  -0.5 °C 29.71in /  1006hPa North 0.9mph /  1.4km/h 2.0mph /  3.2km/h 17% 0.00in /  0mm 5.00 W/m2
19:24 79.5 °F /  26.4 °C 30.9 °F /  -0.6 °C 29.72in /  1006.3hPa East 0.9mph /  1.4km/h 2.0mph /  3.2km/h 17% 0.00in /  0mm 5.00 W/m2
19:28 79.3 °F /  26.3 °C 30.7 °F /  -0.7 °C 29.72in /  1006.3hPa East 0.9mph /  1.4km/h 2.0mph /  3.2km/h 17% 0.00in /  0mm 5.00 W/m2
19:34 79.2 °F /  26.2 °C 30.6 °F /  -0.8 °C 29.72in /  1006.3hPa North 4.0mph /  6.4km/h 4.0mph /  6.4km/h 17% 0.00in /  0mm 5.00 W/m2
19:38 79.0 °F /  26.1 °C 30.4 °F /  -0.9 °C 29.72in /  1006.3hPa Calm   3.0mph /  4.8km/h 17% 0.00in /  0mm 0.00 W/m2
19:44 78.6 °F /  25.9 °C 31.6 °F /  -0.2 °C 29.72in /  1006.3hPa Calm   2.0mph /  3.2km/h 18% 0.00in /  0mm 0.00 W/m2
19:48 78.4 °F /  25.8 °C 31.5 °F /  -0.3 °C 29.72in /  1006.3hPa Calm   3.0mph /  4.8km/h 18% 0.00in /  0mm 0.00 W/m2
19:54 77.9 °F /  25.5 °C 30.9 °F /  -0.6 °C 29.73in /  1006.7hPa Calm   3.0mph /  4.8km/h 18% 0.00in /  0mm 0.00 W/m2
19:58 77.5 °F /  25.3 °C 30.7 °F /  -0.7 °C 29.73in /  1006.7hPa North 0.9mph /  1.4km/h 2.0mph /  3.2km/h 18% 0.00in /  0mm 5.00 W/m2
20:04 77.4 °F /  25.2 °C 30.6 °F /  -0.8 °C 29.74in /  1007hPa North 0.9mph /  1.4km/h 1.0mph /  1.6km/h 18% 0.00in /  0mm 0.00 W/m2
20:08 76.8 °F /  24.9 °C 30.0 °F /  -1.1 °C 29.74in /  1007hPa Calm   1.0mph /  1.6km/h 18% 0.00in /  0mm 0.00 W/m2
20:13 76.5 °F /  24.7 °C 29.8 °F /  -1.2 °C 29.74in /  1007hPa Calm   1.0mph /  1.6km/h 18% 0.00in /  0mm 5.00 W/m2
20:19 75.7 °F /  24.3 °C 30.6 °F /  -0.8 °C 29.74in /  1007hPa Calm     19% 0.00in /  0mm 0.00 W/m2
Regenstein, Windhoek, Namibia
Compliments of Weather Underground - 3 mb